Durango Ski Resort, Colorado Weather observations

Data are for observation ending at time listed.
 Day   Time    Ave.   Ave.  Ave.  Vector   Max.    Total    Solar   Ave.  
  of    of     Air    Rel.  Wind   Wind    Wind   Precip.   Rad.    Soil  
Year   Day     Temp.  Hum.  Speed  Dir.    Gust                     Temp. 
2016   (PST)    F      %     mph   deg.    mph      in.     W/m2     F   
------------------------------------------------------------------------------
 179   11:00   63.6    16    7.7    76     13.3    99999.00   99999    99999.0
 179   11:10   63.3    15    5.8    64      9.5    99999.00   99999    99999.0
 179   11:20   64.1    15    2.8    84      9.5    99999.00   99999    99999.0
 179   11:30   64.8    15    4.4    68     11.2    99999.00   99999    99999.0
 179   11:40   65.2    15    3.7   115      6.9    99999.00   99999    99999.0
 179   11:50   66.6    15    7.3    84     14.6    99999.00   99999    99999.0
 179   12:00   65.7    14    4.6    87     10.3    99999.00   99999    99999.0
 179   12:10   66.7    15    4.2    23      9.1    99999.00   99999    99999.0
 179   12:20   66.2    14    8.5   100     13.8    99999.00   99999    99999.0
 179   12:30   66.3    14    6.7    72     12.1    99999.00   99999    99999.0
 179   12:40   67.4    14    5.1    67      9.9    99999.00   99999    99999.0
 179   12:50   69.9    15    5.4    44     11.2    99999.00   99999    99999.0
 179   13:00   68.9    14    6.7     6     11.6    99999.00   99999    99999.0
 179   13:10   67.5    13    6.2    15     11.6    99999.00   99999    99999.0
 179   13:20   66.8    13    7.0    95     12.9    99999.00   99999    99999.0
 179   13:30   69.6    14    4.2   261      7.4    99999.00   99999    99999.0
 179   13:40   70.2    13    5.1    99     13.3    99999.00   99999    99999.0
 179   13:50   66.8    14    5.0    43      8.6    99999.00   99999    99999.0
 179   14:00   68.8    15    2.2   298      6.5    99999.00   99999    99999.0
 179   14:10   66.7    15    4.2   342      9.5    99999.00   99999    99999.0
 179   14:20   66.6    14    4.6    83      9.5    99999.00   99999    99999.0
 179   14:30   66.6    16    5.6   146      9.9    99999.00   99999    99999.0
 179   14:40   65.6    25    9.2   198     13.8    99999.00   99999    99999.0
 179   14:50   65.7    25    5.1   172      8.2    99999.00   99999    99999.0
 179   15:00   69.9    21    3.6   192      8.6    99999.00   99999    99999.0
 179   15:10   71.7    19    4.0   202     11.6    99999.00   99999    99999.0
 179   15:20   70.6    18    7.7   206     16.3    99999.00   99999    99999.0
 179   15:30   71.3    17    1.4   144      8.6    99999.00   99999    99999.0
 179   15:40   70.5    16    4.1   353      6.5    99999.00   99999    99999.0
 179   15:50   67.3    18    2.8   333      7.4    99999.00   99999    99999.0
 179   16:00   68.4    18    0.0     0      0.0    99999.00   99999    99999.0
 179   16:10   68.8    19    0.6   178      5.2    99999.00   99999    99999.0
 179   16:20   68.4    22    0.0     0      0.0    99999.00   99999    99999.0
 179   16:30   68.0    20    5.0   196      9.1    99999.00   99999    99999.0
 179   16:40   66.9    22    0.7   178      6.1    99999.00   99999    99999.0
 179   16:50   66.6    22    0.2   166      4.4    99999.00   99999    99999.0
 179   17:00   66.3    23    0.0     0      0.0    99999.00   99999    99999.0
 179   17:10   66.4    23    1.2   181      6.9    99999.00   99999    99999.0
 179   17:20   67.5    22    6.5   204      9.9    99999.00   99999    99999.0
 179   17:30   65.8    24    7.7   201     11.2    99999.00   99999    99999.0
 179   17:40   65.6    26    5.8   187      9.5    99999.00   99999    99999.0
 179   17:50   66.6    26    5.1   174      9.5    99999.00   99999    99999.0
 179   18:00   66.8    25    6.3   161     10.3    99999.00   99999    99999.0
 179   18:10   67.7    23    7.6   162     11.6    99999.00   99999    99999.0
 179   18:20   68.2    23    6.5   157     11.6    99999.00   99999    99999.0
 179   18:30   67.7    22    7.8   153     13.8    99999.00   99999    99999.0
 179   18:40   67.0    22    7.1   158     11.6    99999.00   99999    99999.0
 179   18:50   67.4    21    5.9   170      8.6    99999.00   99999    99999.0
 179   19:00   67.4    21    6.6   164     11.2    99999.00   99999    99999.0
 179   19:10   66.4    22    4.9   130      9.1    99999.00   99999    99999.0
 179   19:20   65.8    22    2.1   181      5.7    99999.00   99999    99999.0
 179   19:30   67.2    21    0.4   172      4.4    99999.00   99999    99999.0
 179   19:40   66.4    21    4.2   156      9.5    99999.00   99999    99999.0
 179   19:50   65.8    22    4.6   169      9.5    99999.00   99999    99999.0
 179   20:00   64.7    24    7.3   173     10.8    99999.00   99999    99999.0
 179   20:10   64.0    26    3.9   159      7.8    99999.00   99999    99999.0
 179   20:20   62.4    29    7.0   159      9.9    99999.00   99999    99999.0
 179   20:30   61.5    30    8.0   141     11.2    99999.00   99999    99999.0
 179   20:40   61.3    30    7.3   165     10.3    99999.00   99999    99999.0
 179   20:50   61.1    30    7.1   135     10.3    99999.00   99999    99999.0
 179   21:00   60.9    31    5.6   133      8.2    99999.00   99999    99999.0
 179   21:10   60.6    32    5.6   146      7.4    99999.00   99999    99999.0
 179   21:20   60.6    32    5.9   156      8.2    99999.00   99999    99999.0
 179   21:30   61.2    29    4.7   178      8.6    99999.00   99999    99999.0
 179   21:40   61.0    29    1.4   186      5.7    99999.00   99999    99999.0
 179   21:50   60.9    27    0.0     0      0.0    99999.00   99999    99999.0
 179   22:00   61.6    24    0.3   106      7.4    99999.00   99999    99999.0
 179   22:10   61.9    20    5.4   103      8.2    99999.00   99999    99999.0
 179   22:20   61.9    21    5.0   103      6.9    99999.00   99999    99999.0
 179   22:30   61.0    26    4.9    97      7.8    99999.00   99999    99999.0
 179   22:40   60.2    31    5.1   125      8.2    99999.00   99999    99999.0
 179   22:50   59.6    32    6.4   157      9.1    99999.00   99999    99999.0
 179   23:00   58.6    33    7.0   164     11.2    99999.00   99999    99999.0
 179   23:10   58.5    34    6.6   159     12.5    99999.00   99999    99999.0
 179   23:20   58.1    34    6.1   161      7.8    99999.00   99999    99999.0
 179   23:30   57.9    35    6.6   169      8.2    99999.00   99999    99999.0
 179   23:40   57.3    36    7.2   171      9.9    99999.00   99999    99999.0
 179   23:50   56.4    38    7.6   171     11.2    99999.00   99999    99999.0
 180    0:00   55.7    39    7.5   174      9.9    99999.00   99999    99999.0
 180    0:10   55.3    40    5.2   166      8.6    99999.00   99999    99999.0
 180    0:20   55.0    42    5.1   176      9.1    99999.00   99999    99999.0
 180    0:30   54.9    44    5.5   171      8.6    99999.00   99999    99999.0
 180    0:40   54.6    46    5.1   172      7.8    99999.00   99999    99999.0
 180    0:50   54.2    47    5.2   171      9.1    99999.00   99999    99999.0
 180    1:00   54.3    48    3.3   152      8.2    99999.00   99999    99999.0
 180    1:10   54.6    48    1.9   131      6.1    99999.00   99999    99999.0
 180    1:20   54.7    48    1.2   131      4.8    99999.00   99999    99999.0
 180    1:30   54.8    48    0.1   131      3.5    99999.00   99999    99999.0
 180    1:40   55.0    48    0.0     0      0.0    99999.00   99999    99999.0
 180    1:50   55.0    48    0.0     0      0.0    99999.00   99999    99999.0
 180    2:00   54.7    48    0.0     0      0.0    99999.00   99999    99999.0
 180    2:10   55.1    48    1.0   131      4.8    99999.00   99999    99999.0
 180    2:20   55.1    47    4.1   131      5.7    99999.00   99999    99999.0
 180    2:30   55.1    47    1.0   131      5.2    99999.00   99999    99999.0
 180    2:40   55.2    46    2.3   131      5.7    99999.00   99999    99999.0
 180    2:50   55.2    46    3.6   134      6.1    99999.00   99999    99999.0
 180    3:00   54.8    48    3.5   128      6.1    99999.00   99999    99999.0
 180    3:10   54.4    48    5.3   152      9.9    99999.00   99999    99999.0
 180    3:20   53.8    48    6.8   173     11.2    99999.00   99999    99999.0
 180    3:30   53.2    51    6.7   175      9.9    99999.00   99999    99999.0
 180    3:40   52.6    51    6.8   169      9.5    99999.00   99999    99999.0
 180    3:50   52.1    52    7.0   168      9.5    99999.00   99999    99999.0
 180    4:00   52.0    51    5.0   161      8.2    99999.00   99999    99999.0
 180    4:10   52.5    52    5.4   163      7.8    99999.00   99999    99999.0
 180    4:20   52.3    52    5.2   164      7.8    99999.00   99999    99999.0
 180    4:30   52.2    53    2.1   165      5.7    99999.00   99999    99999.0
 180    4:40   52.5    54    4.7   170      6.9    99999.00   99999    99999.0
 180    4:50   52.4    56    3.2   172      5.7    99999.00   99999    99999.0
 180    5:00   52.4    57    0.0     0      0.0    99999.00   99999    99999.0
 180    5:10   52.4    57    0.0     0      0.0    99999.00   99999    99999.0
 180    5:20   52.3    57    1.7   172      4.4    99999.00   99999    99999.0
 180    5:30   52.2    57    0.0     0      0.0    99999.00   99999    99999.0
 180    5:40   52.4    56    0.0     0      0.0    99999.00   99999    99999.0
 180    5:50   52.7    54    0.0     0      0.0    99999.00   99999    99999.0
 180    6:00   52.7    55    0.0     0      0.0    99999.00   99999    99999.0
 180    6:10   52.7    55    0.0     0      0.0    99999.00   99999    99999.0
 180    6:20   53.2    54    0.0     0      0.0    99999.00   99999    99999.0
 180    6:30   53.9    54    0.0     0      0.0    99999.00   99999    99999.0
 180    6:40   54.0    54    0.0     0      0.0    99999.00   99999    99999.0
 180    6:50   54.3    54    0.4   182      4.8    99999.00   99999    99999.0
 180    7:00   54.8    53    1.6   181      7.8    99999.00   99999    99999.0
 180    7:10   55.6    52    0.3   181      4.4    99999.00   99999    99999.0
 180    7:20   56.6    48    0.0     0      0.0    99999.00   99999    99999.0
 180    7:30   57.3    47    0.3   165      4.4    99999.00   99999    99999.0
 180    7:40   57.2    48    0.3   164      3.5    99999.00   99999    99999.0
 180    7:50   57.7    48    0.0     0      0.0    99999.00   99999    99999.0
 180    8:00   58.5    48    0.0     0      0.0    99999.00   99999    99999.0
 180    8:10   58.1    48    0.0     0      0.0    99999.00   99999    99999.0
 180    8:20   57.8    49    0.8   170      5.7    99999.00   99999    99999.0
 180    8:30   58.8    48    1.7   182      6.9    99999.00   99999    99999.0
 180    8:40   58.1    49    1.6   179      8.2    99999.00   99999    99999.0
 180    8:50   58.0    51    4.6   173      7.4    99999.00   99999    99999.0
 180    9:00   59.0    50    1.4   186      6.9    99999.00   99999    99999.0
 180    9:10   59.0    50    1.3   196      5.2    99999.00   99999    99999.0
 180    9:20   59.5    49    1.5   173      7.4    99999.00   99999    99999.0
 180    9:30   58.9    50    3.5   188      8.6    99999.00   99999    99999.0
 180    9:40   60.0    48    2.5   175      8.2    99999.00   99999    99999.0
 180    9:50   59.0    49    5.4   173      9.9    99999.00   99999    99999.0
 180   10:00   59.8    49    6.2   173     11.2    99999.00   99999    99999.0
 180   10:10   60.3    46    5.4   161     10.3    99999.00   99999    99999.0
 180   10:20   59.9    47    6.1   150     10.3    99999.00   99999    99999.0
 180   10:30   60.4    47    5.9   156      9.5    99999.00   99999    99999.0
 180   10:40   60.1    48    7.8   150     13.3    99999.00   99999    99999.0
 180   10:50   60.6    47    7.2   154     11.2    99999.00   99999    99999.0

Return to Durango Ski Resort, Colorado graphs page.


Western Regional Climate Center,wrcc@dri.edu